createdAt,value
2017-10-27T00:02:19.988Z,17.25
2017-10-27T00:04:47.495Z,17.00
2017-10-27T00:07:15.768Z,17.52
2017-10-27T00:09:44.038Z,15.77
2017-10-27T00:12:12.336Z,20.92
2017-10-27T00:14:40.629Z,25.23
2017-10-27T00:17:08.162Z,18.98
2017-10-27T00:19:35.849Z,18.00
2017-10-27T00:22:03.355Z,21.67
2017-10-27T00:24:30.888Z,18.87
2017-10-27T00:26:58.441Z,21.45
2017-10-27T00:29:25.966Z,21.12
2017-10-27T00:31:54.250Z,16.23
2017-10-27T00:34:22.546Z,20.42
2017-10-27T00:36:50.066Z,17.00
2017-10-27T00:39:17.582Z,13.80
2017-10-27T00:41:45.087Z,19.48
2017-10-27T00:44:13.479Z,17.87
2017-10-27T00:46:41.007Z,19.27
2017-10-27T00:49:08.562Z,16.83
2017-10-27T00:51:36.083Z,14.45
2017-10-27T00:54:03.620Z,19.40
2017-10-27T00:56:31.891Z,13.90
2017-10-27T00:59:00.299Z,11.30
2017-10-27T01:01:27.819Z,12.27
2017-10-27T01:03:56.108Z,17.30
2017-10-27T01:06:24.398Z,13.88
2017-10-27T01:08:51.907Z,16.90
2017-10-27T01:11:19.506Z,11.50
2017-10-27T01:13:47.777Z,15.02
2017-10-27T01:16:16.050Z,11.55
2017-10-27T01:18:44.328Z,9.02
2017-10-27T01:21:12.598Z,9.90
2017-10-27T01:23:40.109Z,11.98
2017-10-27T01:26:07.623Z,13.30
2017-10-27T01:28:35.136Z,14.25
2017-10-27T01:31:02.654Z,6.35
2017-10-27T01:33:30.172Z,6.65
2017-10-27T01:35:57.680Z,10.65
2017-10-27T01:38:25.258Z,11.38
2017-10-27T01:40:52.863Z,12.02
2017-10-27T01:43:20.360Z,12.10
2017-10-27T01:45:47.872Z,5.22
2017-10-27T01:48:15.391Z,10.32
2017-10-27T01:50:42.886Z,8.32
2017-10-27T01:53:10.382Z,10.82
2017-10-27T01:55:38.670Z,10.77
2017-10-27T01:58:06.171Z,11.60
2017-10-27T02:00:33.680Z,8.90
2017-10-27T02:03:01.206Z,9.85
2017-10-27T02:05:28.707Z,10.85
2017-10-27T02:07:56.229Z,8.88
2017-10-27T02:10:23.733Z,7.28
2017-10-27T02:12:51.250Z,5.82
2017-10-27T02:15:18.763Z,8.13
2017-10-27T02:17:46.292Z,6.30
2017-10-27T02:20:13.782Z,6.28
2017-10-27T02:22:41.291Z,7.10
2017-10-27T02:25:08.839Z,8.68
2017-10-27T02:27:36.340Z,7.18
2017-10-27T02:30:03.840Z,7.65
2017-10-27T02:32:31.341Z,6.65
2017-10-27T02:34:59.625Z,6.85
2017-10-27T02:37:27.908Z,9.38
2017-10-27T02:39:55.421Z,5.53
2017-10-27T02:42:22.937Z,8.30
2017-10-27T02:44:50.457Z,7.30
2017-10-27T02:47:17.965Z,7.30
2017-10-27T02:49:45.490Z,8.70
2017-10-27T02:52:13.020Z,5.47
2017-10-27T02:54:40.524Z,6.40
2017-10-27T02:57:08.031Z,8.88
2017-10-27T02:59:35.542Z,8.68
2017-10-27T03:02:03.047Z,6.28
2017-10-27T03:04:30.560Z,6.50
2017-10-27T03:06:58.056Z,8.05
2017-10-27T03:09:25.558Z,6.10
2017-10-27T03:11:53.125Z,11.50
2017-10-27T03:14:21.426Z,5.50
2017-10-27T03:16:48.937Z,5.90
2017-10-27T03:19:16.424Z,9.68
2017-10-27T03:21:43.937Z,7.65
2017-10-27T03:24:11.453Z,5.03
2017-10-27T03:26:38.949Z,6.05
2017-10-27T03:29:06.453Z,5.20
2017-10-27T03:31:34.762Z,8.50
2017-10-27T03:34:03.222Z,6.47
2017-10-27T03:36:30.735Z,7.65
2017-10-27T03:38:59.053Z,6.15
2017-10-27T03:41:27.321Z,9.13
2017-10-27T03:43:55.588Z,6.57
2017-10-27T03:46:23.223Z,7.53
2017-10-27T03:48:50.739Z,6.75
2017-10-27T03:51:18.245Z,4.60
2017-10-27T03:53:45.768Z,4.55
2017-10-27T03:56:13.270Z,5.20
2017-10-27T03:58:40.793Z,5.05
2017-10-27T04:01:08.309Z,6.53
2017-10-27T04:03:35.816Z,7.20
2017-10-27T04:06:03.323Z,4.75
2017-10-27T04:08:30.823Z,4.47
2017-10-27T04:10:58.342Z,7.90
2017-10-27T04:13:25.882Z,3.65
2017-10-27T04:15:53.378Z,3.87
2017-10-27T04:18:21.641Z,5.78
2017-10-27T04:20:49.909Z,6.22
2017-10-27T04:23:17.413Z,9.95
2017-10-27T04:25:44.925Z,10.55
2017-10-27T04:28:12.440Z,7.47
2017-10-27T04:30:39.946Z,8.82
2017-10-27T04:33:10.724Z,12.15
2017-10-27T04:35:38.240Z,4.20
2017-10-27T04:38:05.762Z,4.97
2017-10-27T04:40:33.304Z,3.08
2017-10-27T04:43:00.813Z,14.90
2017-10-27T04:45:28.352Z,6.37
2017-10-27T04:47:55.893Z,7.43
2017-10-27T04:50:23.424Z,7.62
2017-10-27T04:52:51.699Z,6.90
2017-10-27T04:55:19.978Z,9.65
2017-10-27T04:57:47.492Z,7.72
2017-10-27T05:00:14.984Z,4.22
2017-10-27T05:02:43.258Z,10.15
2017-10-27T05:05:10.762Z,13.62
2017-10-27T05:07:38.278Z,4.95
2017-10-27T05:10:05.817Z,4.93
2017-10-27T05:12:33.366Z,6.03
2017-10-27T05:15:00.882Z,4.95
2017-10-27T05:17:34.017Z,9.27
2017-10-27T05:20:07.101Z,7.82
2017-10-27T05:25:34.498Z,5.25
2017-10-27T05:28:02.008Z,8.50
2017-10-27T05:30:29.517Z,4.35
2017-10-27T05:32:57.048Z,7.20
2017-10-27T05:35:24.569Z,7.45
2017-10-27T05:37:52.084Z,7.75
2017-10-27T05:40:19.611Z,7.22
2017-10-27T05:42:47.127Z,5.22
2017-10-27T05:45:15.472Z,4.65
2017-10-27T05:47:42.976Z,8.27
2017-10-27T05:50:10.523Z,4.15
2017-10-27T05:52:38.021Z,8.50
2017-10-27T05:55:05.535Z,11.63
2017-10-27T05:57:33.857Z,7.93
2017-10-27T06:00:01.398Z,7.68
2017-10-27T06:02:29.661Z,8.60
2017-10-27T06:04:57.945Z,11.10
2017-10-27T06:07:25.443Z,11.82
2017-10-27T06:09:52.993Z,11.23
2017-10-27T06:12:20.532Z,7.18
2017-10-27T06:14:48.049Z,7.47
2017-10-27T06:17:15.563Z,10.10
2017-10-27T06:19:43.104Z,5.50
2017-10-27T06:22:10.617Z,6.20
2017-10-27T06:24:38.141Z,7.60
2017-10-27T06:27:05.685Z,9.57
2017-10-27T06:29:33.992Z,10.52
2017-10-27T06:32:01.496Z,5.57
2017-10-27T06:34:29.034Z,6.87
2017-10-27T06:36:57.030Z,11.40
2017-10-27T06:39:24.560Z,9.95
2017-10-27T06:41:52.076Z,8.40
2017-10-27T06:44:19.585Z,6.10
2017-10-27T07:27:11.870Z,3.80
2017-10-27T07:29:39.408Z,3.97
2017-10-27T07:32:07.672Z,8.05
2017-10-27T07:34:35.958Z,7.35
2017-10-27T07:37:04.280Z,3.30
2017-10-27T07:39:32.028Z,6.25
2017-10-27T07:41:59.529Z,3.75
2017-10-27T07:44:27.017Z,7.30
2017-10-27T07:46:55.302Z,3.95
2017-10-27T07:49:23.570Z,4.87
2017-10-27T07:51:51.860Z,7.20
2017-10-27T07:54:19.634Z,4.07
2017-10-27T07:56:47.159Z,6.53
2017-10-27T07:59:15.451Z,4.47
2017-10-27T08:01:43.759Z,4.62
2017-10-27T08:04:11.290Z,6.70
2017-10-27T08:06:38.821Z,5.78
2017-10-27T08:09:06.336Z,7.03
2017-10-27T08:11:33.889Z,6.43
2017-10-27T08:14:01.457Z,4.22
2017-10-27T08:16:28.976Z,6.70
2017-10-27T08:18:56.483Z,6.68
2017-10-27T08:21:23.987Z,3.20
2017-10-27T08:23:51.534Z,4.50
2017-10-27T08:26:19.085Z,9.30
2017-10-27T08:28:46.625Z,4.60
2017-10-27T08:31:14.141Z,3.92
2017-10-27T08:33:42.448Z,5.30
2017-10-27T08:36:09.954Z,6.72
2017-10-27T08:38:37.520Z,7.35
2017-10-27T08:41:05.040Z,6.18
2017-10-27T08:43:32.583Z,8.27
2017-10-27T08:46:00.083Z,4.10
2017-10-27T08:48:27.610Z,3.55
2017-10-27T08:50:55.116Z,5.10
2017-10-27T08:53:22.632Z,6.07
2017-10-27T08:55:50.134Z,6.93
2017-10-27T08:58:17.623Z,3.40
2017-10-27T09:00:45.522Z,6.78
2017-10-27T09:03:13.023Z,3.58
2017-10-27T09:05:40.543Z,8.80
2017-10-27T09:08:08.073Z,9.63
2017-10-27T09:10:35.587Z,7.37
2017-10-27T09:13:03.105Z,4.15
2017-10-27T09:15:30.611Z,3.10
2017-10-27T09:17:58.129Z,6.00
2017-10-27T09:20:25.633Z,4.45
2017-10-27T09:22:53.157Z,8.48
2017-10-27T09:25:21.586Z,2.87
2017-10-27T09:27:50.141Z,13.20
2017-10-27T09:30:17.666Z,4.32
2017-10-27T09:32:45.171Z,9.93
2017-10-27T09:35:12.704Z,4.93
2017-10-27T09:37:40.205Z,6.68
2017-10-27T09:40:07.723Z,12.07
2017-10-27T09:42:35.232Z,8.07
2017-10-27T09:45:03.515Z,7.25
2017-10-27T09:47:31.036Z,3.72
2017-10-27T09:49:58.572Z,3.80
2017-10-27T09:52:26.098Z,2.95
2017-10-27T09:54:53.673Z,6.78
2017-10-27T09:57:21.211Z,6.78
2017-10-27T09:59:48.729Z,2.70
2017-10-27T10:02:16.245Z,5.18
2017-10-27T10:04:43.736Z,3.75
2017-10-27T10:07:11.244Z,4.20
2017-10-27T10:09:40.424Z,5.57
2017-10-27T10:12:07.928Z,5.12
2017-10-27T10:14:35.448Z,4.20
2017-10-27T10:17:03.719Z,6.62
2017-10-27T10:19:31.270Z,7.80
2017-10-27T10:21:58.838Z,6.03
2017-10-27T10:24:26.387Z,7.82
2017-10-27T10:26:53.896Z,4.68
2017-10-27T10:29:21.503Z,5.00
2017-10-27T10:31:49.020Z,7.40
2017-10-27T10:34:16.566Z,6.12
2017-10-27T10:36:44.088Z,4.90
2017-10-27T10:39:11.640Z,4.60
2017-10-27T10:41:39.231Z,2.55
2017-10-27T10:44:07.533Z,3.95
2017-10-27T10:46:35.056Z,3.83
2017-10-27T10:49:02.604Z,7.12
2017-10-27T10:51:30.135Z,3.58
2017-10-27T10:53:57.654Z,8.73
2017-10-27T10:56:26.002Z,6.35
2017-10-27T10:58:53.623Z,4.87
2017-10-27T11:01:21.122Z,3.95
2017-10-27T11:03:48.679Z,3.80
2017-10-27T11:06:16.306Z,2.35
2017-10-27T11:08:43.840Z,4.05
2017-10-27T11:11:12.135Z,3.92
2017-10-27T11:13:39.701Z,3.30
2017-10-27T11:16:07.242Z,1.80
2017-10-27T11:18:34.812Z,2.37
2017-10-27T11:21:02.356Z,3.17
2017-10-27T11:23:29.855Z,1.90
2017-10-27T11:25:57.364Z,4.30
2017-10-27T11:28:24.995Z,3.40
2017-10-27T11:30:52.716Z,3.58
2017-10-27T11:33:20.233Z,4.10
2017-10-27T11:35:48.540Z,4.60
2017-10-27T11:38:16.052Z,4.40
2017-10-27T11:40:43.544Z,6.68
2017-10-27T11:43:11.060Z,3.93
2017-10-27T11:45:38.558Z,3.58
2017-10-27T11:48:06.832Z,4.15
2017-10-27T11:50:35.105Z,4.37
2017-10-27T11:53:03.379Z,5.10
2017-10-27T11:55:30.877Z,7.40
2017-10-27T11:57:58.424Z,5.78
2017-10-27T12:00:25.936Z,5.55
2017-10-27T12:02:53.460Z,7.18
2017-10-27T12:05:20.958Z,3.10
2017-10-27T12:07:48.471Z,3.65
2017-10-27T12:10:15.995Z,3.90
2017-10-27T12:12:44.399Z,2.80
2017-10-27T12:15:11.904Z,4.93
2017-10-27T12:17:39.423Z,2.95
2017-10-27T12:20:06.998Z,4.35
2017-10-27T12:22:34.525Z,6.62
2017-10-27T12:25:02.806Z,4.45
2017-10-27T12:27:31.072Z,4.50
2017-10-27T12:29:59.334Z,7.32
2017-10-27T12:32:26.855Z,4.57
2017-10-27T12:34:54.587Z,3.53
2017-10-27T12:37:22.112Z,3.92
2017-10-27T12:39:49.630Z,3.03
2017-10-27T12:42:17.145Z,4.68
2017-10-27T12:44:44.665Z,3.20
2017-10-27T12:47:12.199Z,5.57
2017-10-27T12:49:39.722Z,4.93
2017-10-27T12:52:07.226Z,5.10
2017-10-27T12:54:34.735Z,5.47
2017-10-27T12:57:02.260Z,4.15
2017-10-27T12:59:29.798Z,6.43
2017-10-27T13:01:57.423Z,6.05
2017-10-27T13:04:24.986Z,6.22
2017-10-27T13:06:53.267Z,5.27
2017-10-27T13:09:21.540Z,4.80
2017-10-27T13:11:49.827Z,5.43
2017-10-27T13:14:18.105Z,3.55
2017-10-27T13:16:46.367Z,3.47
2017-10-27T13:19:14.653Z,2.65
2017-10-27T13:21:43.063Z,2.90
2017-10-27T13:24:10.579Z,4.40
2017-10-27T13:26:38.126Z,2.87
2017-10-27T13:29:05.639Z,5.65
2017-10-27T13:31:33.248Z,2.95
2017-10-27T13:34:00.799Z,4.72
2017-10-27T13:36:28.303Z,3.70
2017-10-27T13:38:56.597Z,4.40
2017-10-27T13:41:24.116Z,3.90
2017-10-27T13:43:51.615Z,3.58
2017-10-27T13:46:19.147Z,3.33
2017-10-27T13:48:47.416Z,3.20
2017-10-27T13:51:15.685Z,3.50
2017-10-27T13:53:43.339Z,5.55
2017-10-27T13:56:10.852Z,4.07
2017-10-27T13:58:38.382Z,3.55
2017-10-27T14:01:05.897Z,4.12
2017-10-27T14:03:33.441Z,4.05
2017-10-27T14:06:00.944Z,1.98
2017-10-27T14:08:28.465Z,3.28
2017-10-27T14:10:55.961Z,2.83
2017-10-27T14:13:23.481Z,4.57
2017-10-27T14:15:51.006Z,2.33
2017-10-27T14:18:18.554Z,3.35
2017-10-27T14:20:46.830Z,3.20
2017-10-27T14:23:15.101Z,3.10
2017-10-27T14:25:43.396Z,3.15
2017-10-27T14:28:11.179Z,3.85
2017-10-27T14:30:38.685Z,3.58
2017-10-27T14:33:06.232Z,2.10
2017-10-27T14:35:33.764Z,3.12
2017-10-27T14:38:01.278Z,3.35
2017-10-27T14:40:29.606Z,6.72
2017-10-27T14:42:57.122Z,2.42
2017-10-27T14:45:24.652Z,4.15
2017-10-27T14:47:52.162Z,4.72
2017-10-27T14:50:19.763Z,7.70
2017-10-27T14:52:47.253Z,4.72
2017-10-27T14:55:15.532Z,3.37
2017-10-27T14:57:44.762Z,2.50
2017-10-27T15:00:12.281Z,5.12
2017-10-27T15:02:39.810Z,3.20
2017-10-27T15:05:07.342Z,3.72
2017-10-27T15:07:34.881Z,3.12
2017-10-27T15:10:03.174Z,9.07
2017-10-27T15:12:30.672Z,3.45
2017-10-27T15:14:58.521Z,2.85
2017-10-27T15:17:26.071Z,3.05
2017-10-27T15:19:53.651Z,4.53
2017-10-27T15:22:21.928Z,2.70
2017-10-27T15:24:49.462Z,4.28
2017-10-27T15:27:16.973Z,2.50
2017-10-27T15:29:44.504Z,9.35
2017-10-27T15:32:12.013Z,4.03
2017-10-27T15:34:39.560Z,4.18
2017-10-27T15:37:07.544Z,3.00
2017-10-27T15:39:35.098Z,5.47
2017-10-27T15:42:02.651Z,4.32
2017-10-27T15:44:30.219Z,3.00
2017-10-27T15:46:58.515Z,6.90
2017-10-27T15:49:26.048Z,2.60
2017-10-27T15:51:53.660Z,3.20
2017-10-27T15:54:21.196Z,3.53
2017-10-27T15:56:48.876Z,3.90
2017-10-27T15:59:16.445Z,2.10
2017-10-27T16:01:43.999Z,5.80
2017-10-27T16:04:11.554Z,5.15
2017-10-27T16:06:39.058Z,3.50
2017-10-27T16:09:06.574Z,3.85
2017-10-27T16:11:34.082Z,3.10
2017-10-27T16:14:01.630Z,3.97
2017-10-27T16:16:29.151Z,4.18
2017-10-27T16:18:56.698Z,2.92
2017-10-27T16:21:25.002Z,3.30
2017-10-27T16:23:52.547Z,3.05
2017-10-27T16:26:20.093Z,3.35
2017-10-27T16:28:47.621Z,2.47
2017-10-27T16:31:15.405Z,3.67
2017-10-27T16:33:43.707Z,4.37
2017-10-27T16:36:11.233Z,3.72
2017-10-27T16:38:38.892Z,4.05
2017-10-27T16:41:06.411Z,3.90
2017-10-27T16:43:33.938Z,8.93
2017-10-27T16:46:01.576Z,1.92
2017-10-27T16:48:29.884Z,1.70
2017-10-27T16:50:57.414Z,3.20
2017-10-27T16:53:25.729Z,1.70
2017-10-27T16:55:53.248Z,3.50
2017-10-27T16:58:21.536Z,3.50
2017-10-27T17:00:49.806Z,3.30
2017-10-27T17:03:18.081Z,3.25
2017-10-27T17:05:46.395Z,3.95
2017-10-27T17:08:13.926Z,2.30
2017-10-27T17:10:43.145Z,2.35
2017-10-27T17:13:10.677Z,3.85
2017-10-27T17:15:38.960Z,3.10
2017-10-27T17:18:06.476Z,3.47
2017-10-27T17:20:33.991Z,4.15
2017-10-27T17:23:02.312Z,2.40
2017-10-27T17:25:29.824Z,4.10
2017-10-27T17:27:57.351Z,1.80
2017-10-27T17:30:24.869Z,13.57
2017-10-27T17:32:52.394Z,11.80
2017-10-27T17:35:20.018Z,7.10
2017-10-27T17:37:47.529Z,2.60
2017-10-27T17:40:15.806Z,3.93
2017-10-27T17:42:43.361Z,4.40
2017-10-27T17:45:11.681Z,5.82
2017-10-27T17:47:40.098Z,2.90
2017-10-27T17:50:08.399Z,18.08
2017-10-27T17:52:36.670Z,3.40
2017-10-27T17:55:04.949Z,5.28
2017-10-27T17:57:33.312Z,4.07
2017-10-27T18:00:00.893Z,3.10
2017-10-27T18:02:29.292Z,3.42
2017-10-27T18:04:56.961Z,2.72
2017-10-27T18:07:24.476Z,3.37
2017-10-27T18:09:52.753Z,3.40
2017-10-27T18:12:21.367Z,3.20
2017-10-27T18:14:49.058Z,3.08
2017-10-27T18:17:16.667Z,2.67
2017-10-27T18:19:44.191Z,4.07
2017-10-27T18:22:11.719Z,3.90
2017-10-27T18:24:39.312Z,4.70
2017-10-27T18:27:06.830Z,3.97
2017-10-27T18:29:34.357Z,4.78
2017-10-27T18:32:01.878Z,3.40
2017-10-27T18:34:29.414Z,3.97
2017-10-27T18:36:56.936Z,4.03
2017-10-27T18:39:24.461Z,2.90
2017-10-27T18:41:51.998Z,2.53
2017-10-27T18:44:19.545Z,3.03
2017-10-27T18:46:47.052Z,29.75
2017-10-27T18:49:14.577Z,5.20
2017-10-27T18:51:42.111Z,4.35
2017-10-27T18:54:09.655Z,2.40
2017-10-27T19:05:17.636Z,3.58
2017-10-27T19:10:37.704Z,3.90
2017-10-27T19:13:05.299Z,3.50
2017-10-27T19:15:33.579Z,3.90
2017-10-27T19:18:02.180Z,3.75
2017-10-27T19:20:29.731Z,3.75
2017-10-27T19:22:57.235Z,3.90
2017-10-27T19:25:24.735Z,5.03
2017-10-27T19:27:52.267Z,3.13
2017-10-27T19:30:20.097Z,4.20
2017-10-27T19:32:47.638Z,3.80
2017-10-27T19:35:16.219Z,3.20
2017-10-27T19:37:43.732Z,2.50
2017-10-27T19:40:11.289Z,3.70
2017-10-27T19:42:38.818Z,3.50
2017-10-27T19:45:06.334Z,3.85
2017-10-27T19:47:34.608Z,3.15
2017-10-27T19:50:02.128Z,5.78
2017-10-27T19:52:29.677Z,9.05
2017-10-27T19:54:57.281Z,4.43
2017-10-27T19:57:24.819Z,12.18
2017-10-27T19:59:52.362Z,5.15
2017-10-27T20:02:20.304Z,4.25
2017-10-27T20:04:47.815Z,3.70
2017-10-27T20:07:16.130Z,4.07
2017-10-27T20:09:44.430Z,2.65
2017-10-27T20:12:11.959Z,3.83
2017-10-27T20:14:39.494Z,4.60
2017-10-27T20:17:06.992Z,3.03
2017-10-27T20:19:35.329Z,3.47
2017-10-27T20:22:03.061Z,3.25
2017-10-27T20:24:30.615Z,3.00
2017-10-27T20:26:58.116Z,4.00
2017-10-27T20:29:25.640Z,4.07
2017-10-27T20:31:53.165Z,3.47
2017-10-27T20:34:21.575Z,3.70
2017-10-27T20:36:49.093Z,3.62
2017-10-27T20:39:17.378Z,4.65
2017-10-27T20:41:45.659Z,4.15
2017-10-27T20:44:13.950Z,4.10
2017-10-27T20:46:41.499Z,5.30
2017-10-27T20:49:09.021Z,3.50
2017-10-27T20:51:36.527Z,3.60
2017-10-27T20:54:04.098Z,3.08
2017-10-27T20:56:31.633Z,4.78
2017-10-27T20:58:59.927Z,3.80
2017-10-27T21:01:27.429Z,5.07
2017-10-27T21:03:54.938Z,5.03
2017-10-27T21:06:22.546Z,3.28
2017-10-27T21:08:50.103Z,2.75
2017-10-27T21:11:17.628Z,3.50
2017-10-27T21:13:45.249Z,2.87
2017-10-27T21:16:12.763Z,3.17
2017-10-27T21:18:40.285Z,3.70
2017-10-27T21:21:08.568Z,4.10
2017-10-27T21:23:36.116Z,2.50
2017-10-27T21:26:04.389Z,2.55
2017-10-27T21:28:31.890Z,8.65
2017-10-27T21:30:59.409Z,7.68
2017-10-27T21:33:27.757Z,7.50
2017-10-27T21:35:55.660Z,6.82
2017-10-27T21:38:23.976Z,3.80
2017-10-27T21:40:51.501Z,5.20
2017-10-27T21:43:19.024Z,4.22
2017-10-27T21:45:46.562Z,2.70
2017-10-27T21:48:14.098Z,3.22
2017-10-27T21:50:41.605Z,6.20
2017-10-27T21:53:09.329Z,4.62
2017-10-27T21:55:36.869Z,3.50
2017-10-27T21:58:04.373Z,5.05
2017-10-27T22:00:31.928Z,10.25
2017-10-27T22:02:59.437Z,4.12
2017-10-27T22:05:27.334Z,3.92
2017-10-27T22:07:54.864Z,4.72
2017-10-27T22:10:23.133Z,3.22
2017-10-27T22:12:50.698Z,5.00
2017-10-27T22:15:18.240Z,7.37
2017-10-27T22:17:45.776Z,7.47
2017-10-27T22:20:13.633Z,6.75
2017-10-27T22:22:41.470Z,3.05
2017-10-27T22:25:09.015Z,3.58
2017-10-27T22:27:36.537Z,6.95
2017-10-27T22:30:04.111Z,4.30
2017-10-27T22:32:31.658Z,4.90
2017-10-27T22:34:59.218Z,5.53
2017-10-27T22:37:26.747Z,5.32
2017-10-27T22:39:54.276Z,3.80
2017-10-27T22:42:22.665Z,5.50
2017-10-27T22:44:50.352Z,6.50
2017-10-27T22:47:17.868Z,5.70
2017-10-27T22:49:46.249Z,5.00
2017-10-27T22:52:13.944Z,5.87
2017-10-27T22:54:41.470Z,6.50
2017-10-27T22:57:08.980Z,4.37
2017-10-27T22:59:36.722Z,7.40
2017-10-27T23:02:04.256Z,5.12
2017-10-27T23:04:32.545Z,3.95
2017-10-27T23:07:00.855Z,4.93
2017-10-27T23:09:28.477Z,5.10
2017-10-27T23:11:56.788Z,5.83
2017-10-27T23:14:24.306Z,4.28
2017-10-27T23:16:51.831Z,4.95
2017-10-27T23:19:19.455Z,4.78
2017-10-27T23:21:46.978Z,5.78
2017-10-27T23:24:14.528Z,5.28
2017-10-27T23:26:42.239Z,8.05
2017-10-27T23:29:09.749Z,5.80
2017-10-27T23:31:37.387Z,5.37
2017-10-27T23:34:04.916Z,8.10
2017-10-27T23:36:40.142Z,5.97
2017-10-27T23:39:08.429Z,5.22
2017-10-27T23:41:36.726Z,4.20
2017-10-27T23:44:04.255Z,9.07
2017-10-27T23:46:31.779Z,6.05
2017-10-27T23:48:59.302Z,6.40
2017-10-27T23:51:26.814Z,4.62
2017-10-27T23:53:54.368Z,6.03
2017-10-27T23:56:21.902Z,4.20
2017-10-27T23:58:49.458Z,4.62
